Time;durP1;ratioP1;P1;durP2;ratioP2;P2;SDS_P1;SDS_P2;PMS_P1;PMS_P2;Temp;Humidity;BMP_temperature;BMP_pressure;BME280_temperature;BME280_humidity;BME280_pressure;Samples;Min_cycle;Max_cycle;Signal;HPM_P1;HPM_P2
2021/01/14 00:01:35;;;;;;;1.89;1.73;;;;;;;17.94;44.19;100199.77;;;;-58
2021/01/14 00:04:35;;;;;;;1.80;1.70;;;;;;;17.91;44.23;100185.25;;;;-53
2021/01/14 00:07:35;;;;;;;1.73;1.63;;;;;;;17.90;44.27;100201.92;;;;-58
2021/01/14 00:10:36;;;;;;;1.81;1.70;;;;;;;17.88;44.27;100201.73;;;;-58
2021/01/14 00:13:35;;;;;;;1.78;1.68;;;;;;;17.85;44.22;100204.64;;;;-58
2021/01/14 00:16:35;;;;;;;1.79;1.69;;;;;;;17.83;44.27;100202.92;;;;-53
2021/01/14 00:19:35;;;;;;;1.71;1.61;;;;;;;17.82;44.28;100219.48;;;;-61
2021/01/14 00:22:35;;;;;;;1.71;1.61;;;;;;;17.80;44.30;100212.41;;;;-60
2021/01/14 00:25:35;;;;;;;1.95;1.63;;;;;;;17.79;44.34;100222.39;;;;-60
2021/01/14 00:28:35;;;;;;;1.70;1.60;;;;;;;17.77;44.31;100224.80;;;;-59
2021/01/14 00:31:35;;;;;;;1.73;1.63;;;;;;;17.75;44.29;100215.14;;;;-53
2021/01/14 00:34:35;;;;;;;1.81;1.70;;;;;;;17.72;44.28;100211.93;;;;-53
2021/01/14 00:37:53;;;;;;;1.80;1.67;;;;;;;17.71;44.31;100223.20;;;;-53
2021/01/14 00:40:35;;;;;;;1.60;1.50;;;;;;;17.69;44.38;100233.14;;;;-53
2021/01/14 00:43:34;;;;;;;1.77;1.67;;;;;;;17.67;44.37;100230.05;;;;-51
2021/01/14 00:46:35;;;;;;;1.69;1.59;;;;;;;17.65;44.43;100227.02;;;;-51
2021/01/14 00:49:35;;;;;;;1.68;1.58;;;;;;;17.64;44.42;100221.44;;;;-51
2021/01/14 00:52:35;;;;;;;1.63;1.53;;;;;;;17.62;44.43;100212.48;;;;-51
2021/01/14 00:55:35;;;;;;;1.57;1.47;;;;;;;17.60;44.44;100217.42;;;;-53
2021/01/14 00:58:35;;;;;;;1.61;1.51;;;;;;;17.58;44.37;100221.62;;;;-53
2021/01/14 01:01:35;;;;;;;1.61;1.51;;;;;;;17.56;44.45;100226.13;;;;-53
2021/01/14 01:04:35;;;;;;;1.65;1.55;;;;;;;17.55;44.39;100233.08;;;;-60
2021/01/14 01:07:35;;;;;;;2.48;1.55;;;;;;;17.54;44.38;100218.58;;;;-59
2021/01/14 01:10:35;;;;;;;2.72;1.65;;;;;;;17.52;44.44;100214.42;;;;-60
2021/01/14 01:13:35;;;;;;;1.50;1.40;;;;;;;17.51;44.53;100226.06;;;;-57
2021/01/14 01:16:35;;;;;;;1.68;1.58;;;;;;;17.49;44.52;100237.66;;;;-58
2021/01/14 01:19:35;;;;;;;1.60;1.50;;;;;;;17.47;44.45;100243.87;;;;-60
2021/01/14 01:22:35;;;;;;;1.62;1.52;;;;;;;17.44;44.55;100235.55;;;;-50
2021/01/14 01:25:35;;;;;;;1.62;1.52;;;;;;;17.44;44.50;100236.94;;;;-50
2021/01/14 01:28:35;;;;;;;1.67;1.57;;;;;;;17.42;44.59;100241.37;;;;-50
2021/01/14 01:31:35;;;;;;;1.58;1.47;;;;;;;17.41;44.57;100240.23;;;;-51
2021/01/14 01:34:34;;;;;;;1.62;1.52;;;;;;;17.40;44.57;100250.17;;;;-60
2021/01/14 01:37:35;;;;;;;1.60;1.50;;;;;;;17.38;44.51;100251.53;;;;-61
2021/01/14 01:40:35;;;;;;;1.69;1.59;;;;;;;17.36;44.56;100242.75;;;;-60
2021/01/14 01:43:35;;;;;;;1.61;1.51;;;;;;;17.35;44.53;100245.59;;;;-60
2021/01/14 01:46:35;;;;;;;1.50;1.40;;;;;;;17.33;44.60;100251.08;;;;-60
2021/01/14 01:49:34;;;;;;;1.60;1.50;;;;;;;17.31;44.56;100259.80;;;;-59
2021/01/14 01:52:35;;;;;;;1.56;1.46;;;;;;;17.30;44.55;100259.69;;;;-60
2021/01/14 01:55:35;;;;;;;1.50;1.40;;;;;;;17.29;44.58;100265.12;;;;-59
2021/01/14 01:58:35;;;;;;;1.54;1.44;;;;;;;17.27;44.61;100265.50;;;;-53
2021/01/14 02:01:35;;;;;;;1.53;1.43;;;;;;;17.26;44.63;100271.14;;;;-53
2021/01/14 02:04:35;;;;;;;1.61;1.51;;;;;;;17.25;44.59;100276.41;;;;-53
2021/01/14 02:07:34;;;;;;;1.70;1.60;;;;;;;17.23;44.63;100278.32;;;;-59
2021/01/14 02:10:35;;;;;;;1.69;1.59;;;;;;;17.22;44.61;100283.64;;;;-58
2021/01/14 02:13:34;;;;;;;1.48;1.38;;;;;;;17.21;44.58;100292.06;;;;-58
2021/01/14 02:16:37;;;;;;;1.70;1.60;;;;;;;17.20;44.55;100296.03;;;;-51
2021/01/14 02:19:35;;;;;;;1.50;1.40;;;;;;;17.20;44.63;100298.19;;;;-51
2021/01/14 02:22:37;;;;;;;1.63;1.53;;;;;;;17.18;44.68;100300.42;;;;-51
2021/01/14 02:25:35;;;;;;;1.50;1.40;;;;;;;17.16;44.61;100289.09;;;;-50
2021/01/14 02:28:35;;;;;;;1.57;1.47;;;;;;;17.15;44.70;100296.19;;;;-50
2021/01/14 02:31:35;;;;;;;1.63;1.41;;;;;;;17.14;44.64;100310.09;;;;-51
2021/01/14 02:34:35;;;;;;;1.50;1.40;;;;;;;17.13;44.68;100300.61;;;;-59
2021/01/14 02:37:35;;;;;;;1.41;1.31;;;;;;;17.12;44.62;100297.86;;;;-59
2021/01/14 02:40:34;;;;;;;1.45;1.35;;;;;;;17.11;44.65;100296.45;;;;-52
2021/01/14 02:43:35;;;;;;;1.58;1.48;;;;;;;17.10;44.63;100295.33;;;;-51
2021/01/14 02:46:35;;;;;;;1.49;1.39;;;;;;;17.10;44.59;100294.48;;;;-52
2021/01/14 02:49:35;;;;;;;1.58;1.48;;;;;;;17.08;44.68;100298.37;;;;-52
2021/01/14 02:52:35;;;;;;;1.50;1.40;;;;;;;17.07;44.68;100300.29;;;;-59
2021/01/14 02:55:34;;;;;;;1.49;1.39;;;;;;;17.06;44.67;100309.77;;;;-58
2021/01/14 02:58:34;;;;;;;1.66;1.56;;;;;;;17.05;44.64;100303.42;;;;-58
2021/01/14 03:01:35;;;;;;;1.45;1.35;;;;;;;17.04;44.65;100301.80;;;;-58
2021/01/14 03:04:34;;;;;;;1.60;1.39;;;;;;;17.03;44.66;100311.56;;;;-58
2021/01/14 03:07:35;;;;;;;1.51;1.41;;;;;;;17.01;44.72;100308.22;;;;-58
2021/01/14 03:10:35;;;;;;;1.63;1.53;;;;;;;17.01;44.68;100304.58;;;;-58
2021/01/14 03:13:34;;;;;;;1.56;1.46;;;;;;;16.99;44.65;100311.34;;;;-58
2021/01/14 03:16:35;;;;;;;1.50;1.40;;;;;;;16.98;44.69;100319.84;;;;-59
2021/01/14 03:19:35;;;;;;;1.58;1.35;;;;;;;16.97;44.70;100313.83;;;;-61
2021/01/14 03:22:34;;;;;;;1.56;1.46;;;;;;;16.96;44.68;100314.15;;;;-59
2021/01/14 03:25:35;;;;;;;1.50;1.40;;;;;;;16.96;44.68;100320.70;;;;-59
2021/01/14 03:28:35;;;;;;;1.40;1.30;;;;;;;16.95;44.64;100323.83;;;;-59
2021/01/14 03:31:34;;;;;;;1.40;1.30;;;;;;;16.94;44.66;100325.53;;;;-61
2021/01/14 03:34:35;;;;;;;1.61;1.51;;;;;;;16.93;44.69;100337.89;;;;-53
2021/01/14 03:37:34;;;;;;;1.65;1.52;;;;;;;16.92;44.71;100344.36;;;;-53
2021/01/14 03:40:35;;;;;;;1.60;1.50;;;;;;;16.91;44.70;100342.95;;;;-53
2021/01/14 03:43:35;;;;;;;1.61;1.48;;;;;;;16.90;44.72;100345.30;;;;-53
2021/01/14 03:46:34;;;;;;;1.51;1.41;;;;;;;16.89;44.70;100348.67;;;;-53
2021/01/14 03:49:35;;;;;;;1.41;1.31;;;;;;;16.88;44.73;100348.27;;;;-53
2021/01/14 03:52:35;;;;;;;1.53;1.43;;;;;;;16.88;44.71;100358.46;;;;-53
2021/01/14 03:55:35;;;;;;;1.41;1.31;;;;;;;16.86;44.71;100361.67;;;;-53
2021/01/14 03:58:35;;;;;;;1.49;1.39;;;;;;;16.85;44.75;100361.99;;;;-53
2021/01/14 04:01:34;;;;;;;1.51;1.41;;;;;;;16.85;44.76;100370.73;;;;-53
2021/01/14 04:04:35;;;;;;;1.41;1.31;;;;;;;16.84;44.71;100362.45;;;;-53
2021/01/14 04:07:35;;;;;;;1.40;1.30;;;;;;;16.83;44.77;100370.38;;;;-53
2021/01/14 04:10:34;;;;;;;1.45;1.35;;;;;;;16.82;44.76;100373.83;;;;-51
2021/01/14 04:13:34;;;;;;;1.82;1.45;;;;;;;16.81;44.78;100370.02;;;;-51
2021/01/14 04:16:35;;;;;;;1.40;1.30;;;;;;;16.80;44.74;100377.97;;;;-58
2021/01/14 04:19:34;;;;;;;1.41;1.31;;;;;;;16.79;44.77;100371.09;;;;-58
2021/01/14 04:22:34;;;;;;;1.41;1.31;;;;;;;16.78;44.79;100378.02;;;;-57
2021/01/14 04:25:35;;;;;;;1.50;1.40;;;;;;;16.78;44.79;100373.73;;;;-61
2021/01/14 04:28:35;;;;;;;1.50;1.40;;;;;;;16.77;44.80;100380.36;;;;-60
2021/01/14 04:31:35;;;;;;;1.53;1.43;;;;;;;16.76;44.81;100380.41;;;;-58
2021/01/14 04:34:35;;;;;;;1.57;1.41;;;;;;;16.75;44.82;100379.60;;;;-59
2021/01/14 04:37:34;;;;;;;1.70;1.57;;;;;;;16.74;44.83;100382.32;;;;-50
2021/01/14 04:40:35;;;;;;;1.61;1.48;;;;;;;16.74;44.76;100387.74;;;;-53
2021/01/14 04:43:34;;;;;;;1.42;1.32;;;;;;;16.73;44.83;100385.87;;;;-53
2021/01/14 04:46:35;;;;;;;1.41;1.31;;;;;;;16.72;44.84;100386.82;;;;-53
2021/01/14 04:49:35;;;;;;;1.41;1.31;;;;;;;16.71;44.86;100391.83;;;;-54
2021/01/14 04:52:34;;;;;;;1.39;1.29;;;;;;;16.70;44.83;100401.02;;;;-57
2021/01/14 04:55:35;;;;;;;1.59;1.42;;;;;;;16.70;44.89;100399.81;;;;-58
2021/01/14 04:58:35;;;;;;;1.47;1.36;;;;;;;16.69;44.86;100403.28;;;;-58
2021/01/14 05:01:34;;;;;;;1.37;1.27;;;;;;;16.68;44.86;100403.58;;;;-57
2021/01/14 05:04:35;;;;;;;1.31;1.20;;;;;;;16.67;44.83;100403.25;;;;-58
2021/01/14 05:07:34;;;;;;;1.54;1.40;;;;;;;16.67;44.80;100421.13;;;;-57
2021/01/14 05:10:34;;;;;;;1.40;1.30;;;;;;;16.65;44.82;100430.48;;;;-59
2021/01/14 05:13:35;;;;;;;1.51;1.35;;;;;;;16.65;44.69;100418.67;;;;-59
2021/01/14 05:16:34;;;;;;;1.43;1.33;;;;;;;16.64;44.80;100420.02;;;;-53
2021/01/14 05:19:34;;;;;;;1.97;1.51;;;;;;;16.63;44.82;100423.09;;;;-53
2021/01/14 05:22:35;;;;;;;4.33;2.55;;;;;;;16.39;43.10;100418.68;;;;-48
2021/01/14 05:25:34;;;;;;;4.33;2.83;;;;;;;16.17;43.10;100415.38;;;;-51
2021/01/14 05:28:34;;;;;;;6.33;3.35;;;;;;;15.96;43.08;100405.27;;;;-56
2021/01/14 05:31:35;;;;;;;5.86;3.07;;;;;;;15.85;43.13;100395.09;;;;-57
2021/01/14 05:34:34;;;;;;;5.05;3.11;;;;;;;15.77;42.97;100408.29;;;;-53
2021/01/14 05:37:35;;;;;;;5.15;3.33;;;;;;;15.56;43.16;100410.48;;;;-56
2021/01/14 05:40:35;;;;;;;5.34;3.37;;;;;;;15.69;43.53;100406.11;;;;-52
2021/01/14 05:43:34;;;;;;;4.25;2.98;;;;;;;15.80;43.90;100418.03;;;;-52
2021/01/14 05:46:34;;;;;;;6.00;2.79;;;;;;;15.88;44.07;100424.02;;;;-56
2021/01/14 05:49:35;;;;;;;4.57;2.73;;;;;;;15.94;44.12;100424.71;;;;-53
2021/01/14 05:52:34;;;;;;;4.33;2.43;;;;;;;15.99;44.20;100428.84;;;;-52
2021/01/14 05:55:35;;;;;;;4.03;2.44;;;;;;;16.04;44.10;100438.62;;;;-55
2021/01/14 05:58:34;;;;;;;3.12;2.33;;;;;;;16.06;44.13;100432.36;;;;-53
2021/01/14 06:01:34;;;;;;;3.14;2.31;;;;;;;16.08;44.22;100439.03;;;;-55
2021/01/14 06:04:34;;;;;;;2.83;2.29;;;;;;;16.09;44.24;100431.63;;;;-52
2021/01/14 06:07:34;;;;;;;3.01;2.27;;;;;;;16.10;44.24;100444.33;;;;-52
2021/01/14 06:10:35;;;;;;;3.75;2.11;;;;;;;16.11;44.29;100459.16;;;;-55
2021/01/14 06:13:35;;;;;;;3.09;2.09;;;;;;;16.13;44.28;100467.28;;;;-52
2021/01/14 06:16:34;;;;;;;2.59;1.89;;;;;;;16.15;44.26;100477.10;;;;-52
2021/01/14 06:19:34;;;;;;;3.55;2.01;;;;;;;16.17;44.31;100479.48;;;;-52
2021/01/14 06:22:35;;;;;;;3.49;1.85;;;;;;;16.20;44.35;100480.02;;;;-52
2021/01/14 06:25:34;;;;;;;2.49;1.85;;;;;;;16.23;44.33;100491.98;;;;-52
2021/01/14 06:28:35;;;;;;;2.67;1.93;;;;;;;16.25;44.29;100491.14;;;;-53
2021/01/14 06:31:35;;;;;;;2.76;2.01;;;;;;;16.29;44.33;100502.75;;;;-52
2021/01/14 06:34:34;;;;;;;2.09;1.87;;;;;;;16.31;44.44;100499.31;;;;-52
2021/01/14 06:37:34;;;;;;;1.68;1.58;;;;;;;16.34;44.46;100494.78;;;;-52
2021/01/14 06:40:34;;;;;;;1.99;1.79;;;;;;;16.38;44.54;100494.70;;;;-53
2021/01/14 06:43:34;;;;;;;2.05;1.62;;;;;;;16.42;44.57;100502.95;;;;-52
2021/01/14 06:46:35;;;;;;;2.13;1.69;;;;;;;16.46;44.59;100506.51;;;;-52
2021/01/14 06:49:34;;;;;;;2.07;1.65;;;;;;;16.51;44.63;100507.88;;;;-52
2021/01/14 06:52:34;;;;;;;2.73;1.68;;;;;;;16.55;44.61;100509.42;;;;-52
2021/01/14 06:55:36;;;;;;;1.67;1.57;;;;;;;16.59;44.61;100508.85;;;;-53
2021/01/14 06:58:34;;;;;;;2.37;1.70;;;;;;;16.63;44.64;100516.70;;;;-53
2021/01/14 07:01:34;;;;;;;2.05;1.73;;;;;;;16.69;44.77;100517.45;;;;-53
2021/01/14 07:04:35;;;;;;;3.30;1.70;;;;;;;16.73;44.71;100514.70;;;;-56
2021/01/14 07:07:34;;;;;;;1.85;1.52;;;;;;;16.77;44.81;100517.94;;;;-52
2021/01/14 07:10:34;;;;;;;2.39;1.71;;;;;;;16.82;44.85;100527.43;;;;-52
2021/01/14 07:13:35;;;;;;;1.81;1.60;;;;;;;16.87;44.88;100535.87;;;;-52
2021/01/14 07:16:34;;;;;;;2.15;1.60;;;;;;;16.89;44.89;100539.48;;;;-52
2021/01/14 07:19:35;;;;;;;2.48;1.50;;;;;;;16.92;44.84;100539.52;;;;-56
2021/01/14 07:22:34;;;;;;;3.10;1.69;;;;;;;16.96;44.88;100536.84;;;;-51
2021/01/14 07:25:34;;;;;;;1.69;1.53;;;;;;;16.98;44.82;100542.30;;;;-56
2021/01/14 07:28:34;;;;;;;1.59;1.45;;;;;;;17.00;44.85;100537.31;;;;-52
2021/01/14 07:31:34;;;;;;;2.35;1.65;;;;;;;17.02;44.88;100539.13;;;;-52
2021/01/14 07:34:34;;;;;;;1.70;1.50;;;;;;;17.03;44.79;100537.11;;;;-52
2021/01/14 07:37:35;;;;;;;1.71;1.49;;;;;;;17.05;44.80;100545.57;;;;-51
2021/01/14 07:40:34;;;;;;;1.71;1.45;;;;;;;17.06;44.77;100539.45;;;;-52
2021/01/14 07:43:34;;;;;;;1.52;1.40;;;;;;;17.07;44.71;100534.76;;;;-52
2021/01/14 07:46:34;;;;;;;1.57;1.47;;;;;;;17.07;44.74;100542.28;;;;-57
2021/01/14 07:49:36;;;;;;;1.57;1.45;;;;;;;17.08;44.67;100557.38;;;;-57
2021/01/14 07:52:34;;;;;;;1.69;1.50;;;;;;;17.08;44.68;100569.45;;;;-53
2021/01/14 07:55:36;;;;;;;1.96;1.52;;;;;;;17.09;44.70;100571.06;;;;-56
2021/01/14 07:58:34;;;;;;;2.03;1.59;;;;;;;17.09;44.67;100564.67;;;;-56
2021/01/14 08:01:34;;;;;;;1.51;1.41;;;;;;;17.09;44.66;100564.51;;;;-52
2021/01/14 08:04:35;;;;;;;1.73;1.48;;;;;;;17.09;44.62;100558.59;;;;-53
2021/01/14 08:07:34;;;;;;;1.66;1.52;;;;;;;17.08;44.60;100560.86;;;;-53
2021/01/14 08:10:34;;;;;;;1.77;1.54;;;;;;;17.09;44.67;100567.02;;;;-53
2021/01/14 08:13:34;;;;;;;1.60;1.40;;;;;;;17.09;44.57;100567.26;;;;-53
2021/01/14 08:16:34;;;;;;;1.69;1.54;;;;;;;17.08;44.59;100573.98;;;;-53
2021/01/14 08:19:35;;;;;;;2.12;1.52;;;;;;;17.08;44.58;100582.48;;;;-53
2021/01/14 08:22:34;;;;;;;1.57;1.47;;;;;;;17.09;44.58;100603.62;;;;-53
2021/01/14 08:25:34;;;;;;;1.60;1.49;;;;;;;17.08;44.58;100609.44;;;;-53
2021/01/14 08:28:35;;;;;;;1.63;1.41;;;;;;;17.08;44.62;100610.22;;;;-57
2021/01/14 08:31:34;;;;;;;1.81;1.54;;;;;;;17.08;44.60;100617.13;;;;-52
2021/01/14 08:34:34;;;;;;;1.62;1.47;;;;;;;17.07;44.62;100622.36;;;;-51
2021/01/14 08:37:35;;;;;;;1.53;1.43;;;;;;;17.07;44.57;100618.56;;;;-50
2021/01/14 08:40:34;;;;;;;1.73;1.49;;;;;;;17.07;44.59;100609.16;;;;-51
2021/01/14 08:43:34;;;;;;;1.56;1.46;;;;;;;17.07;44.59;100597.75;;;;-51
2021/01/14 08:46:34;;;;;;;1.61;1.40;;;;;;;17.07;44.57;100593.78;;;;-51
2021/01/14 08:49:34;;;;;;;1.73;1.35;;;;;;;17.07;44.56;100601.63;;;;-55
2021/01/14 08:52:34;;;;;;;1.57;1.40;;;;;;;17.07;44.52;100606.73;;;;-55
2021/01/14 08:55:34;;;;;;;1.60;1.50;;;;;;;17.07;44.57;100612.73;;;;-51
2021/01/14 08:58:34;;;;;;;2.17;1.43;;;;;;;17.11;44.71;100618.95;;;;-52
2021/01/14 09:01:35;;;;;;;5.57;1.65;;;;;;;17.12;44.87;100628.30;;;;-50
2021/01/14 09:04:34;;;;;;;1.86;1.45;;;;;;;17.14;45.01;100634.14;;;;-50
2021/01/14 09:07:34;;;;;;;2.75;1.58;;;;;;;17.15;45.05;100634.98;;;;-51
2021/01/14 09:10:35;;;;;;;2.43;1.47;;;;;;;17.18;45.07;100637.30;;;;-56
2021/01/14 09:13:34;;;;;;;1.79;1.50;;;;;;;17.19;45.04;100637.73;;;;-55
2021/01/14 09:16:35;;;;;;;2.34;1.43;;;;;;;17.19;44.90;100639.27;;;;-53
2021/01/14 09:19:34;;;;;;;3.75;1.77;;;;;;;17.21;45.29;100647.33;;;;-48
2021/01/14 09:22:35;;;;;;;2.80;1.67;;;;;;;17.26;45.51;100657.05;;;;-49
2021/01/14 09:25:34;;;;;;;5.50;1.71;;;;;;;17.32;45.81;100667.13;;;;-45
2021/01/14 09:28:34;;;;;;;6.45;1.74;;;;;;;17.36;45.87;100670.92;;;;-45
2021/01/14 09:31:35;;;;;;;7.38;1.84;;;;;;;17.42;46.07;100677.69;;;;-47
2021/01/14 09:34:34;;;;;;;8.37;2.07;;;;;;;17.48;46.17;100688.73;;;;-44
2021/01/14 09:37:34;;;;;;;4.53;2.11;;;;;;;17.50;45.09;100681.55;;;;-47
2021/01/14 09:40:34;;;;;;;4.69;1.90;;;;;;;17.52;45.28;100683.38;;;;-46
2021/01/14 09:43:34;;;;;;;3.45;1.96;;;;;;;17.56;45.24;100686.28;;;;-47
2021/01/14 09:46:34;;;;;;;2.92;1.79;;;;;;;17.59;45.44;100683.33;;;;-56
2021/01/14 09:49:34;;;;;;;3.88;2.02;;;;;;;17.62;45.07;100685.59;;;;-49
2021/01/14 09:52:34;;;;;;;3.91;1.97;;;;;;;17.65;44.39;100687.89;;;;-63
2021/01/14 09:55:34;;;;;;;2.81;1.85;;;;;;;17.69;44.56;100695.42;;;;-53
2021/01/14 09:58:34;;;;;;;6.17;1.76;;;;;;;17.79;46.34;100692.52;;;;-56
2021/01/14 10:01:35;;;;;;;16.57;2.21;;;;;;;17.90;46.46;100701.97;;;;-52
2021/01/14 10:04:34;;;;;;;9.50;2.08;;;;;;;17.94;45.39;100709.09;;;;-51
2021/01/14 10:07:34;;;;;;;3.95;2.00;;;;;;;17.94;45.65;100706.58;;;;-50
2021/01/14 10:10:34;;;;;;;5.38;1.84;;;;;;;17.97;45.44;100703.12;;;;-48
2021/01/14 10:13:34;;;;;;;3.77;2.15;;;;;;;18.01;45.65;100702.14;;;;-49
2021/01/14 10:16:34;;;;;;;4.02;1.86;;;;;;;18.05;45.61;100710.64;;;;-57
2021/01/14 10:19:34;;;;;;;7.56;1.89;;;;;;;18.04;45.15;100715.26;;;;-56
2021/01/14 10:22:36;;;;;;;3.72;1.71;;;;;;;18.04;44.93;100718.83;;;;-51
2021/01/14 10:25:35;;;;;;;4.35;2.06;;;;;;;18.05;45.09;100721.67;;;;-57
2021/01/14 10:28:34;;;;;;;4.74;1.86;;;;;;;18.09;45.17;100721.73;;;;-51
2021/01/14 10:31:34;;;;;;;4.08;1.79;;;;;;;18.13;45.29;100726.75;;;;-58
2021/01/14 10:34:34;;;;;;;6.63;2.16;;;;;;;18.17;45.19;100731.52;;;;-53
2021/01/14 10:37:35;;;;;;;4.13;1.84;;;;;;;18.17;44.88;100731.11;;;;-49
2021/01/14 10:40:35;;;;;;;3.44;1.84;;;;;;;18.21;45.37;100733.20;;;;-54
2021/01/14 10:43:35;;;;;;;5.29;1.81;;;;;;;18.23;45.41;100730.00;;;;-53
2021/01/14 10:46:34;;;;;;;3.89;1.73;;;;;;;18.25;45.37;100725.48;;;;-52
2021/01/14 10:49:34;;;;;;;3.25;1.69;;;;;;;18.28;45.31;100717.27;;;;-51
2021/01/14 10:52:34;;;;;;;5.42;1.90;;;;;;;18.30;45.12;100720.84;;;;-53
2021/01/14 10:55:34;;;;;;;2.82;1.79;;;;;;;18.34;45.23;100719.45;;;;-54
2021/01/14 10:58:34;;;;;;;5.51;1.86;;;;;;;18.35;45.16;100710.47;;;;-51
2021/01/14 11:01:34;;;;;;;5.54;1.91;;;;;;;18.36;45.07;100715.26;;;;-51
2021/01/14 11:04:34;;;;;;;3.11;1.84;;;;;;;18.36;44.79;100718.50;;;;-51
2021/01/14 11:07:34;;;;;;;2.89;1.59;;;;;;;18.36;44.77;100718.19;;;;-51
2021/01/14 11:10:34;;;;;;;2.40;1.79;;;;;;;18.35;44.64;100720.29;;;;-51
2021/01/14 11:13:34;;;;;;;2.89;1.70;;;;;;;18.35;44.64;100721.02;;;;-51
2021/01/14 11:16:34;;;;;;;2.93;1.64;;;;;;;18.37;44.62;100722.43;;;;-51
2021/01/14 11:19:34;;;;;;;3.95;1.63;;;;;;;18.38;44.58;100719.19;;;;-51
2021/01/14 11:22:34;;;;;;;2.57;1.70;;;;;;;18.38;44.63;100713.09;;;;-52
2021/01/14 11:25:34;;;;;;;3.43;1.69;;;;;;;18.39;44.55;100719.63;;;;-53
2021/01/14 11:28:38;;;;;;;2.38;1.67;;;;;;;18.41;44.53;100715.23;;;;-52
2021/01/14 11:31:34;;;;;;;3.07;1.56;;;;;;;18.41;44.57;100705.86;;;;-52
2021/01/14 11:34:34;;;;;;;1.93;1.62;;;;;;;18.42;44.44;100703.10;;;;-51
2021/01/14 11:37:35;;;;;;;3.24;1.66;;;;;;;18.43;44.50;100700.86;;;;-53
2021/01/14 11:40:34;;;;;;;1.92;1.48;;;;;;;18.45;44.42;100693.23;;;;-54
2021/01/14 11:43:35;;;;;;;2.32;1.65;;;;;;;18.46;44.41;100697.08;;;;-52
2021/01/14 11:46:34;;;;;;;3.39;1.55;;;;;;;18.47;44.41;100702.78;;;;-52
2021/01/14 11:49:34;;;;;;;2.70;1.59;;;;;;;18.49;44.38;100690.72;;;;-52
2021/01/14 11:52:34;;;;;;;1.99;1.67;;;;;;;18.50;44.39;100678.06;;;;-51
2021/01/14 11:55:34;;;;;;;2.47;1.51;;;;;;;18.51;44.30;100675.81;;;;-53
2021/01/14 11:58:35;;;;;;;2.29;1.48;;;;;;;18.53;44.32;100675.84;;;;-51
2021/01/14 12:01:34;;;;;;;1.89;1.41;;;;;;;18.53;44.29;100669.19;;;;-53
2021/01/14 12:04:35;;;;;;;2.42;1.47;;;;;;;18.55;44.27;100665.78;;;;-51
2021/01/14 12:07:34;;;;;;;1.55;1.43;;;;;;;18.56;44.23;100661.27;;;;-51
2021/01/14 12:10:34;;;;;;;2.82;1.67;;;;;;;18.60;44.32;100666.44;;;;-51
2021/01/14 12:13:34;;;;;;;8.31;1.84;;;;;;;18.58;44.00;100662.27;;;;-58
2021/01/14 12:16:34;;;;;;;4.04;1.87;;;;;;;18.58;43.66;100668.03;;;;-46
2021/01/14 12:19:34;;;;;;;5.23;2.19;;;;;;;18.59;43.30;100667.57;;;;-54
2021/01/14 12:22:38;;;;;;;4.50;1.97;;;;;;;18.63;43.42;100664.75;;;;-58
2021/01/14 12:25:34;;;;;;;5.57;1.80;;;;;;;18.67;43.83;100671.22;;;;-58
2021/01/14 12:28:34;;;;;;;5.29;1.98;;;;;;;18.70;43.94;100670.70;;;;-59
2021/01/14 12:31:34;;;;;;;6.05;1.83;;;;;;;18.73;44.06;100667.00;;;;-51
2021/01/14 12:34:34;;;;;;;4.40;1.63;;;;;;;18.77;44.16;100662.50;;;;-53
2021/01/14 12:37:34;;;;;;;4.75;1.91;;;;;;;18.80;44.21;100662.27;;;;-54
2021/01/14 12:40:34;;;;;;;3.88;1.79;;;;;;;18.83;44.29;100656.44;;;;-53
2021/01/14 12:43:34;;;;;;;3.27;1.87;;;;;;;18.87;44.14;100656.00;;;;-51
2021/01/14 12:46:34;;;;;;;4.32;1.59;;;;;;;18.86;44.06;100642.98;;;;-51
2021/01/14 12:49:34;;;;;;;4.65;1.88;;;;;;;18.88;44.12;100639.88;;;;-55
2021/01/14 12:52:34;;;;;;;2.18;1.69;;;;;;;18.91;44.31;100650.70;;;;-51
2021/01/14 12:55:36;;;;;;;3.23;1.62;;;;;;;18.94;44.35;100645.59;;;;-51
2021/01/14 12:58:34;;;;;;;4.63;1.66;;;;;;;18.96;44.40;100642.86;;;;-59
2021/01/14 13:01:35;;;;;;;2.65;1.81;;;;;;;19.00;44.26;100639.01;;;;-52
2021/01/14 13:04:34;;;;;;;4.67;1.77;;;;;;;18.92;43.36;100638.19;;;;-48
2021/01/14 13:07:34;;;;;;;3.61;1.81;;;;;;;18.87;43.33;100638.22;;;;-44
2021/01/14 13:10:34;;;;;;;3.49;2.01;;;;;;;18.83;43.11;100637.36;;;;-49
2021/01/14 13:13:34;;;;;;;6.43;1.96;;;;;;;18.80;43.34;100632.63;;;;-51
2021/01/14 13:16:34;;;;;;;4.65;1.92;;;;;;;18.79;43.52;100627.56;;;;-58
2021/01/14 13:19:34;;;;;;;4.53;1.88;;;;;;;18.83;43.54;100630.30;;;;-48
2021/01/14 13:22:34;;;;;;;8.31;1.99;;;;;;;18.86;43.50;100628.94;;;;-51
2021/01/14 13:25:34;;;;;;;5.77;1.87;;;;;;;18.90;43.63;100627.12;;;;-58
2021/01/14 13:28:34;;;;;;;4.01;1.92;;;;;;;18.92;43.68;100617.64;;;;-56
2021/01/14 13:31:34;;;;;;;5.25;2.01;;;;;;;18.96;43.59;100624.18;;;;-52
2021/01/14 13:34:34;;;;;;;4.51;1.97;;;;;;;19.00;43.82;100630.73;;;;-51
2021/01/14 13:37:34;;;;;;;9.59;1.96;;;;;;;19.02;43.95;100619.78;;;;-52
2021/01/14 13:40:34;;;;;;;7.37;1.97;;;;;;;19.03;43.91;100623.87;;;;-50
2021/01/14 13:43:34;;;;;;;3.07;1.83;;;;;;;19.07;43.99;100619.98;;;;-53
2021/01/14 13:46:34;;;;;;;5.53;1.93;;;;;;;19.08;44.05;100609.94;;;;-54
2021/01/14 13:49:34;;;;;;;4.35;1.83;;;;;;;19.11;44.07;100615.73;;;;-54
2021/01/14 13:52:34;;;;;;;2.71;1.67;;;;;;;19.13;43.97;100614.69;;;;-58
2021/01/14 13:55:34;;;;;;;4.33;2.02;;;;;;;19.14;44.06;100615.12;;;;-50
2021/01/14 13:58:34;;;;;;;4.62;1.72;;;;;;;19.16;44.10;100617.02;;;;-51
2021/01/14 14:01:35;;;;;;;4.47;1.69;;;;;;;19.17;44.05;100617.04;;;;-50
2021/01/14 14:04:34;;;;;;;2.77;1.56;;;;;;;19.20;43.95;100622.42;;;;-51
2021/01/14 14:07:35;;;;;;;1.92;1.69;;;;;;;19.21;44.15;100622.98;;;;-53
2021/01/14 14:10:34;;;;;;;4.39;1.75;;;;;;;19.22;43.98;100626.25;;;;-49
2021/01/14 14:13:34;;;;;;;3.79;1.63;;;;;;;19.24;44.00;100625.88;;;;-51
2021/01/14 14:16:34;;;;;;;4.48;1.86;;;;;;;19.25;44.03;100625.13;;;;-54
2021/01/14 14:19:34;;;;;;;2.66;1.68;;;;;;;19.26;44.02;100629.22;;;;-55
2021/01/14 14:22:38;;;;;;;2.88;1.57;;;;;;;19.29;43.98;100635.42;;;;-51
2021/01/14 14:25:34;;;;;;;3.31;1.79;;;;;;;19.30;44.11;100633.81;;;;-49
2021/01/14 14:28:34;;;;;;;2.37;1.60;;;;;;;19.32;44.10;100634.13;;;;-50
2021/01/14 14:31:38;;;;;;;2.75;1.50;;;;;;;19.33;43.99;100631.06;;;;-57
2021/01/14 14:34:34;;;;;;;3.81;1.63;;;;;;;19.35;44.11;100629.63;;;;-54
2021/01/14 14:37:34;;;;;;;2.63;1.51;;;;;;;19.36;44.03;100622.31;;;;-50
2021/01/14 14:40:34;;;;;;;2.11;1.67;;;;;;;19.37;44.03;100625.34;;;;-49
2021/01/14 14:43:34;;;;;;;3.05;1.63;;;;;;;19.39;43.89;100626.33;;;;-52
2021/01/14 14:46:34;;;;;;;2.30;1.58;;;;;;;19.38;43.80;100634.88;;;;-52
2021/01/14 14:49:34;;;;;;;2.13;1.45;;;;;;;19.38;43.78;100638.94;;;;-52
2021/01/14 14:52:34;;;;;;;4.52;1.53;;;;;;;19.36;43.58;100639.08;;;;-55
2021/01/14 14:55:34;;;;;;;3.11;1.69;;;;;;;19.37;43.55;100639.97;;;;-52
2021/01/14 14:58:34;;;;;;;2.43;1.65;;;;;;;19.36;43.41;100647.50;;;;-52
2021/01/14 15:01:34;;;;;;;2.45;1.63;;;;;;;19.35;43.54;100643.20;;;;-52
2021/01/14 15:04:35;;;;;;;1.83;1.43;;;;;;;19.36;43.51;100642.62;;;;-52
2021/01/14 15:07:34;;;;;;;2.17;1.51;;;;;;;19.35;43.52;100638.56;;;;-52
2021/01/14 15:10:34;;;;;;;2.27;1.50;;;;;;;19.35;43.57;100638.16;;;;-50
2021/01/14 15:13:34;;;;;;;2.93;1.71;;;;;;;19.37;43.76;100641.02;;;;-49
2021/01/14 15:16:34;;;;;;;2.93;1.66;;;;;;;19.39;43.75;100651.13;;;;-49
2021/01/14 15:19:34;;;;;;;5.64;2.01;;;;;;;19.34;43.34;100649.21;;;;-50
2021/01/14 15:22:34;;;;;;;2.07;1.67;;;;;;;19.35;43.04;100648.07;;;;-49
2021/01/14 15:25:34;;;;;;;4.55;1.69;;;;;;;19.36;43.34;100643.27;;;;-50
2021/01/14 15:28:34;;;;;;;2.63;1.58;;;;;;;19.38;43.55;100644.05;;;;-53
2021/01/14 15:31:34;;;;;;;2.74;1.67;;;;;;;19.39;43.61;100644.05;;;;-54
2021/01/14 15:34:34;;;;;;;2.53;1.54;;;;;;;19.41;43.69;100645.28;;;;-50
2021/01/14 15:37:34;;;;;;;2.97;1.52;;;;;;;19.41;43.73;100645.12;;;;-49
2021/01/14 15:40:34;;;;;;;3.26;1.66;;;;;;;19.45;43.67;100645.66;;;;-48
2021/01/14 15:43:34;;;;;;;2.39;1.57;;;;;;;19.46;43.63;100651.53;;;;-47
2021/01/14 15:46:34;;;;;;;3.34;1.65;;;;;;;19.47;43.79;100651.04;;;;-54
2021/01/14 15:49:34;;;;;;;2.68;1.63;;;;;;;19.51;43.77;100646.61;;;;-51
2021/01/14 15:52:34;;;;;;;1.83;1.55;;;;;;;19.51;43.83;100645.23;;;;-47
2021/01/14 15:55:34;;;;;;;1.74;1.40;;;;;;;19.53;43.74;100643.59;;;;-52
2021/01/14 15:58:34;;;;;;;2.56;1.44;;;;;;;19.54;43.91;100637.19;;;;-48
2021/01/14 16:01:34;;;;;;;2.14;1.48;;;;;;;19.56;44.04;100638.59;;;;-51
2021/01/14 16:04:34;;;;;;;3.32;1.76;;;;;;;19.58;44.05;100641.54;;;;-52
2021/01/14 16:07:34;;;;;;;2.43;1.51;;;;;;;19.58;43.97;100640.89;;;;-59
2021/01/14 16:10:34;;;;;;;2.21;1.50;;;;;;;19.58;44.02;100643.48;;;;-56
2021/01/14 16:13:34;;;;;;;1.57;1.43;;;;;;;19.57;44.03;100641.14;;;;-57
2021/01/14 16:16:34;;;;;;;3.25;1.50;;;;;;;19.58;44.08;100645.84;;;;-56
2021/01/14 16:19:34;;;;;;;1.95;1.41;;;;;;;19.58;43.97;100646.58;;;;-50
2021/01/14 16:22:34;;;;;;;3.80;1.60;;;;;;;19.60;44.05;100641.72;;;;-50
2021/01/14 16:25:34;;;;;;;4.59;1.57;;;;;;;19.60;44.03;100638.95;;;;-50
2021/01/14 16:28:34;;;;;;;1.56;1.46;;;;;;;19.62;44.03;100629.87;;;;-48
2021/01/14 16:31:34;;;;;;;2.62;1.45;;;;;;;19.64;44.09;100631.43;;;;-57
2021/01/14 16:34:34;;;;;;;1.85;1.50;;;;;;;19.68;44.06;100626.67;;;;-45
2021/01/14 16:37:34;;;;;;;2.12;1.52;;;;;;;19.70;43.93;100626.77;;;;-51
2021/01/14 16:40:34;;;;;;;4.01;1.55;;;;;;;19.69;43.73;100626.98;;;;-51
2021/01/14 16:43:34;;;;;;;2.04;1.41;;;;;;;19.68;43.66;100621.62;;;;-51